Time;durP1;ratioP1;P1;durP2;ratioP2;P2;SDS_P1;SDS_P2;PMS_P1;PMS_P2;Temp;Humidity;BMP_temperature;BMP_pressure;BME280_temperature;BME280_humidity;BME280_pressure;Samples;Min_cycle;Max_cycle;Signal;HPM_P1;HPM_P2
2021/06/12 06:43:52;;;;;;;576.35;543.13;;;18.60;99.90;;;;;;5131770;27;20528;-64
2021/06/12 06:46:18;;;;;;;684.35;642.97;;;18.50;99.90;;;;;;5131635;27;20525;-64
2021/06/12 06:48:43;;;;;;;737.67;692.35;;;18.60;99.90;;;;;;5131655;28;20162;-64
2021/06/12 06:51:09;;;;;;;839.65;787.10;;;18.60;99.90;;;;;;5131597;28;20648;-64
2021/06/12 06:53:34;;;;;;;864.38;809.20;;;18.70;99.90;;;;;;5131529;28;20176;-64
2021/06/12 06:56:02;;;;;;;887.20;830.20;;;18.70;99.90;;;;;;5131433;28;20589;-64
2021/06/12 06:58:28;;;;;;;900.92;842.42;;;18.60;99.90;;;;;;5131490;28;20174;-64
2021/06/12 07:00:54;;;;;;;922.65;862.20;;;18.60;99.90;;;;;;5131466;27;20166;-64
2021/06/12 07:03:20;;;;;;;866.28;811.15;;;18.60;99.90;;;;;;5131272;28;20186;-64
2021/06/12 07:05:45;;;;;;;896.65;838.65;;;18.60;99.90;;;;;;5131376;28;20637;-64
2021/06/12 07:08:11;;;;;;;883.95;827.15;;;18.60;99.90;;;;;;5131282;28;20170;-64
2021/06/12 07:10:36;;;;;;;826.38;774.22;;;18.50;99.90;;;;;;5131301;28;20201;-64
2021/06/12 07:13:03;;;;;;;890.00;832.22;;;18.50;99.90;;;;;;5131148;27;20162;-64
2021/06/12 07:15:29;;;;;;;875.72;820.15;;;18.50;99.90;;;;;;5131088;28;20166;-64
2021/06/12 07:17:55;;;;;;;855.08;800.33;;;18.50;99.90;;;;;;5131126;27;20171;-64
2021/06/12 07:20:21;;;;;;;880.60;823.50;;;18.50;99.90;;;;;;5131097;28;20201;-64
2021/06/12 07:22:46;;;;;;;884.40;826.30;;;18.60;99.90;;;;;;5130987;27;20198;-64
2021/06/12 07:25:12;;;;;;;865.08;809.05;;;18.60;99.90;;;;;;5131080;28;20159;-64
2021/06/12 07:27:38;;;;;;;888.72;830.80;;;18.60;99.90;;;;;;5130841;28;20186;-64
2021/06/12 07:30:05;;;;;;;849.30;794.70;;;18.70;99.90;;;;;;5130873;28;20167;-64
2021/06/12 07:32:31;;;;;;;859.15;803.40;;;18.70;99.90;;;;;;5130851;28;20174;-64
2021/06/12 07:34:57;;;;;;;846.97;792.78;;;18.80;99.90;;;;;;5130738;28;20167;-64
2021/06/12 07:37:22;;;;;;;878.63;820.55;;;18.90;99.90;;;;;;5130783;28;20162;-64
2021/06/12 07:39:48;;;;;;;892.20;833.50;;;18.90;99.90;;;;;;5130692;28;20182;-64
2021/06/12 07:42:14;;;;;;;915.35;854.63;;;19.00;99.90;;;;;;5130394;28;20237;-64
2021/06/12 07:44:39;;;;;;;936.25;872.38;;;19.00;99.90;;;;;;5130563;28;20166;-64
2021/06/12 07:47:05;;;;;;;998.58;927.70;;;19.10;99.90;;;;;;5130446;28;20173;-64
2021/06/12 07:49:31;;;;;;;970.20;902.70;;;19.40;99.90;;;;;;5130460;28;20158;-64
2021/06/12 07:51:57;;;;;;;954.17;888.85;;;19.50;99.90;;;;;;5130457;28;20180;-64
2021/06/12 07:54:23;;;;;;;907.33;847.58;;;19.60;99.90;;;;;;5121760;27;20242;-64
2021/06/12 07:56:48;;;;;;;951.00;886.75;;;19.40;99.90;;;;;;5116702;28;20262;-64
2021/06/12 07:59:14;;;;;;;986.70;918.90;;;19.20;99.90;;;;;;5116618;28;20178;-64
2021/06/12 08:01:40;;;;;;;949.63;887.75;;;19.10;99.90;;;;;;5116472;28;20245;-64
2021/06/12 08:04:05;;;;;;;978.53;912.58;;;19.10;99.90;;;;;;5116627;28;20624;-64
2021/06/12 08:06:31;;;;;;;956.00;892.90;;;18.80;99.90;;;;;;5116495;28;20171;-64
2021/06/12 08:08:56;;;;;;;911.78;853.38;;;18.70;99.90;;;;;;5116388;28;20167;-64
2021/06/12 08:11:22;;;;;;;911.45;852.90;;;18.60;99.90;;;;;;5116388;28;20175;-64
2021/06/12 08:13:48;;;;;;;911.28;852.90;;;18.40;99.90;;;;;;5116286;28;20159;-64
2021/06/12 08:16:13;;;;;;;827.35;776.25;;;18.30;99.90;;;;;;5116386;28;20178;-64
2021/06/12 08:18:40;;;;;;;843.15;790.55;;;18.20;99.90;;;;;;5116428;28;20262;-64
2021/06/12 08:21:06;;;;;;;828.10;776.50;;;18.10;99.90;;;;;;5116225;28;20174;-64
2021/06/12 08:23:31;;;;;;;857.35;803.70;;;18.10;99.90;;;;;;5116175;28;20187;-64
2021/06/12 08:25:57;;;;;;;877.88;821.72;;;18.10;99.90;;;;;;5114868;28;20509;-64
2021/06/12 08:28:22;;;;;;;893.72;835.72;;;18.30;99.90;;;;;;5115917;28;20186;-64
2021/06/12 08:30:48;;;;;;;950.15;887.08;;;18.30;99.90;;;;;;5116100;28;20163;-64
2021/06/12 08:33:14;;;;;;;940.40;878.13;;;18.50;99.90;;;;;;5116144;28;20174;-64
2021/06/12 08:35:40;;;;;;;901.00;842.80;;;18.50;99.90;;;;;;5116144;28;20642;-64
2021/06/12 08:38:07;;;;;;;888.55;831.47;;;18.40;99.90;;;;;;5114643;28;20188;-64
2021/06/12 08:40:32;;;;;;;866.75;811.63;;;18.30;99.90;;;;;;5115898;28;20174;-64
2021/06/12 08:42:58;;;;;;;875.47;820.10;;;18.20;99.90;;;;;;5115434;28;20222;-64
2021/06/12 08:45:28;;;;;;;849.92;796.78;;;18.10;99.90;;;;;;5115733;28;20177;-64
2021/06/12 08:47:57;;;;;;;783.00;734.67;;;18.10;99.90;;;;;;5115744;28;20198;-64
2021/06/12 08:50:25;;;;;;;752.30;705.72;;;18.00;99.90;;;;;;5115612;28;20500;-64
2021/06/12 08:52:52;;;;;;;783.20;735.08;;;17.90;99.90;;;;;;5115537;28;20170;-64
2021/06/12 08:55:19;;;;;;;776.33;728.67;;;17.90;99.90;;;;;;5115462;28;20175;-64
2021/06/12 08:57:45;;;;;;;763.50;717.08;;;17.70;99.90;;;;;;5115468;28;20167;-64
2021/06/12 09:00:11;;;;;;;743.67;698.75;;;17.80;99.90;;;;;;5115403;28;20706;-64
2021/06/12 09:03:05;;;;;;;763.03;716.45;;;17.80;99.90;;;;;;5115288;28;20199;-64
2021/06/12 09:06:00;;;;;;;712.47;668.92;;;17.70;99.90;;;;;;5114354;28;20559;-64
2021/06/12 09:08:31;;;;;;;574.63;542.47;;;17.70;99.90;;;;;;5113282;28;20183;-64
2021/06/12 09:23:43;;;;;;;468.38;443.70;;;18.30;99.90;;;;;;5144500;27;20533;-64
2021/06/12 09:26:10;;;;;;;511.60;483.98;;;17.40;99.90;;;;;;5111322;28;20517;-65
2021/06/12 09:28:53;;;;;;;597.83;563.50;;;17.50;99.90;;;;;;5111145;28;20173;-65
2021/06/12 09:31:25;;;;;;;597.72;563.42;;;17.60;99.90;;;;;;5092938;28;20254;-65
2021/06/12 09:33:54;;;;;;;693.70;651.38;;;17.70;99.90;;;;;;5111137;28;20174;-65
2021/06/12 09:36:20;;;;;;;760.90;713.40;;;17.70;99.90;;;;;;5110968;28;20659;-65
2021/06/12 09:38:47;;;;;;;822.10;770.50;;;17.90;99.90;;;;;;5111084;28;20182;-65
2021/06/12 09:41:28;;;;;;;855.65;800.67;;;18.00;99.90;;;;;;5109551;28;20167;-65
2021/06/12 09:43:54;;;;;;;889.50;831.53;;;18.10;99.90;;;;;;5110827;28;20174;-65
2021/06/12 09:46:37;;;;;;;947.38;883.88;;;18.30;99.90;;;;;;5109548;28;20625;-65
2021/06/12 09:49:05;;;;;;;988.22;920.75;;;18.40;99.90;;;;;;5110801;28;20624;-65
2021/06/12 09:51:31;;;;;;;1021.00;948.63;;;18.60;99.90;;;;;;5110709;28;20163;-65
2021/06/12 09:54:00;;;;;;;1074.25;990.13;;;18.70;99.90;;;;;;5109360;28;20588;-65
2021/06/12 09:56:26;;;;;;;1123.90;999.90;;;18.90;99.90;;;;;;5110596;28;20174;-65
2021/06/12 09:58:57;;;;;;;1114.40;999.90;;;19.00;99.90;;;;;;5110405;28;20171;-65
2021/06/12 10:01:24;;;;;;;1119.57;999.90;;;19.00;99.90;;;;;;5110263;28;20559;-65
2021/06/12 10:04:11;;;;;;;1039.10;966.72;;;18.90;99.90;;;;;;5110286;28;20194;-65
2021/06/12 10:06:38;;;;;;;1009.58;938.83;;;18.80;99.90;;;;;;5110196;28;20627;-65
2021/06/12 10:09:05;;;;;;;1032.63;959.13;;;18.60;99.90;;;;;;5110133;28;20170;-64
2021/06/12 10:11:32;;;;;;;961.45;897.00;;;18.40;99.90;;;;;;5110179;28;20208;-65
2021/06/12 10:13:59;;;;;;;979.70;912.95;;;18.20;99.90;;;;;;5110117;28;20171;-65
2021/06/12 10:16:26;;;;;;;946.22;883.00;;;18.20;99.90;;;;;;5110050;28;20260;-65
2021/06/12 10:18:53;;;;;;;944.53;881.72;;;18.20;99.90;;;;;;5110024;28;20636;-65
2021/06/12 10:21:19;;;;;;;955.75;891.72;;;18.20;99.90;;;;;;5109880;28;20175;-65
2021/06/12 10:23:46;;;;;;;966.65;901.65;;;18.30;99.90;;;;;;5110134;28;20163;-65
2021/06/12 10:26:15;;;;;;;1000.42;931.75;;;18.40;99.90;;;;;;5110081;28;20210;-65
2021/06/12 10:28:41;;;;;;;1017.78;947.00;;;18.50;99.90;;;;;;5110047;28;20163;-65
2021/06/12 10:31:08;;;;;;;950.75;886.63;;;18.80;99.90;;;;;;5109937;28;20576;-65
2021/06/12 10:33:34;;;;;;;965.47;898.78;;;18.80;99.90;;;;;;5104986;28;20228;-65
2021/06/12 10:36:17;;;;;;;958.40;893.47;;;18.70;99.90;;;;;;5096333;28;20553;-65
2021/06/12 10:38:45;;;;;;;906.78;847.05;;;18.60;99.90;;;;;;5096336;28;20175;-65
2021/06/12 10:41:31;;;;;;;955.40;890.88;;;18.50;99.90;;;;;;5095095;28;20682;-65
2021/06/12 10:43:59;;;;;;;955.10;890.63;;;18.50;99.90;;;;;;5096201;28;20250;-65
2021/06/12 10:46:29;;;;;;;997.45;928.35;;;18.70;99.90;;;;;;5096153;28;20166;-65
2021/06/12 10:49:04;;;;;;;1004.47;935.22;;;19.10;99.90;;;;;;5096152;28;20170;-65
2021/06/12 10:51:34;;;;;;;977.53;911.13;;;19.30;99.90;;;;;;5094773;28;20167;-65
2021/06/12 10:56:42;;;;;;;922.90;860.67;;;19.00;99.90;;;;;;5095949;28;20250;-65
2021/06/12 10:59:09;;;;;;;926.28;863.60;;;18.90;99.90;;;;;;5095822;28;20160;-65
2021/06/12 11:01:35;;;;;;;1012.25;941.25;;;18.70;99.90;;;;;;5095671;28;20251;-65
2021/06/12 11:04:17;;;;;;;973.20;907.03;;;18.80;99.90;;;;;;5095754;28;20160;-65
2021/06/12 11:06:59;;;;;;;954.17;888.97;;;18.90;99.90;;;;;;5095755;28;20163;-65
2021/06/12 11:09:35;;;;;;;917.90;856.50;;;19.00;99.90;;;;;;5095756;28;20164;-65
2021/06/12 11:12:22;;;;;;;926.70;863.85;;;19.20;99.90;;;;;;5095709;28;20174;-65
2021/06/12 11:14:56;;;;;;;909.25;848.55;;;19.40;99.90;;;;;;5095472;28;20209;-65
2021/06/12 11:17:22;;;;;;;921.72;858.47;;;19.50;99.90;;;;;;5095367;28;20678;-65
2021/06/12 11:20:11;;;;;;;893.08;833.65;;;19.80;99.90;;;;;;5094199;28;20175;-65
2021/06/12 11:29:20;;;;;;;755.97;708.20;;;20.30;99.90;;;;;;5095443;28;20170;-65
2021/06/12 11:31:46;;;;;;;843.20;790.40;;;20.20;99.90;;;;;;5095263;28;20175;-65
2021/06/12 11:34:12;;;;;;;884.03;828.42;;;20.10;99.90;;;;;;5095205;28;20448;-65
2021/06/12 11:36:38;;;;;;;916.50;858.20;;;20.10;99.90;;;;;;5095026;28;20254;-65
2021/06/12 11:39:04;;;;;;;869.45;815.63;;;20.10;99.90;;;;;;5095139;28;20228;-65
2021/06/12 11:41:30;;;;;;;862.38;809.67;;;20.00;99.90;;;;;;5094990;28;20228;-65
2021/06/12 11:43:56;;;;;;;871.22;817.08;;;19.90;99.90;;;;;;5095116;28;20621;-65
2021/06/12 11:46:28;;;;;;;933.55;872.60;;;19.70;99.90;;;;;;5093954;28;20191;-65
2021/06/12 11:48:54;;;;;;;910.80;852.28;;;19.60;99.90;;;;;;5094835;28;20242;-65
2021/06/12 11:51:25;;;;;;;888.78;833.00;;;19.80;99.90;;;;;;5094861;28;20528;-65
2021/06/12 11:54:09;;;;;;;865.30;811.15;;;19.80;99.90;;;;;;5094800;28;20190;-65
2021/06/12 11:57:08;;;;;;;856.47;803.53;;;20.00;99.90;;;;;;5094706;28;20177;-65
2021/06/12 11:59:35;;;;;;;762.42;715.63;;;20.30;99.90;;;;;;5094257;28;20190;-65
2021/06/12 12:02:07;;;;;;;806.42;757.05;;;20.30;99.90;;;;;;5094894;28;20222;-65
2021/06/12 12:04:42;;;;;;;779.88;733.65;;;20.30;99.90;;;;;;5094654;28;20565;-65
2021/06/12 12:07:10;;;;;;;688.55;648.05;;;20.30;99.90;;;;;;5094474;28;20167;-65
2021/06/12 12:09:41;;;;;;;691.42;650.83;;;20.20;99.90;;;;;;5094476;28;20159;-65
2021/06/12 12:12:08;;;;;;;638.47;601.08;;;20.00;99.90;;;;;;5094292;28;20170;-65
2021/06/12 12:14:36;;;;;;;648.80;610.78;;;20.00;99.90;;;;;;5094476;28;20179;-65
2021/06/12 12:17:03;;;;;;;717.53;674.53;;;19.90;99.90;;;;;;5094260;28;20761;-65
2021/06/12 12:19:29;;;;;;;691.92;650.78;;;20.00;99.90;;;;;;5094251;28;20174;-65
2021/06/12 12:21:58;;;;;;;614.88;579.25;;;20.20;99.90;;;;;;5094011;28;20576;-65
2021/06/12 12:24:26;;;;;;;607.17;571.95;;;20.50;99.90;;;;;;5094235;28;20167;-65
2021/06/12 12:27:06;;;;;;;576.38;544.03;;;20.60;99.90;;;;;;5094086;28;20164;-65
2021/06/12 12:29:33;;;;;;;586.35;553.17;;;20.60;99.90;;;;;;5094147;28;20502;-65
2021/06/12 12:32:01;;;;;;;527.38;498.40;;;20.40;99.90;;;;;;5094035;28;20164;-65
2021/06/12 12:34:32;;;;;;;602.63;567.92;;;20.20;99.90;;;;;;5094075;28;20163;-65
2021/06/12 12:36:58;;;;;;;689.47;648.15;;;20.00;99.90;;;;;;5093985;28;20163;-65
2021/06/12 12:39:34;;;;;;;603.67;568.97;;;19.80;99.90;;;;;;5094008;28;20263;-65
2021/06/12 12:41:59;;;;;;;659.15;620.20;;;19.70;99.90;;;;;;5093952;28;20193;-65
2021/06/12 12:44:27;;;;;;;675.78;635.83;;;19.60;99.90;;;;;;5093901;28;20566;-65
2021/06/12 12:46:54;;;;;;;752.38;707.08;;;19.70;99.90;;;;;;5093871;28;20161;-65
2021/06/12 12:49:30;;;;;;;712.80;670.50;;;20.10;99.90;;;;;;5093892;28;20170;-65
2021/06/12 12:52:01;;;;;;;562.53;531.80;;;20.60;99.90;;;;;;5093878;28;20232;-65
2021/06/12 12:54:31;;;;;;;525.33;497.40;;;20.70;99.90;;;;;;5093808;28;20250;-65
2021/06/12 12:57:03;;;;;;;492.23;466.67;;;20.70;99.90;;;;;;5093360;28;20170;-65
2021/06/12 12:59:35;;;;;;;495.13;469.40;;;20.70;99.90;;;;;;5093716;28;20168;-65
2021/06/12 13:02:06;;;;;;;467.92;443.92;;;20.70;99.90;;;;;;5093726;28;20616;-65
2021/06/12 13:04:35;;;;;;;457.30;434.13;;;20.90;99.90;;;;;;5093905;28;20167;-65
2021/06/12 13:07:16;;;;;;;450.55;428.02;;;21.10;99.90;;;;;;5092722;28;20198;-65
2021/06/12 13:09:48;;;;;;;348.67;332.33;;;21.30;99.90;;;;;;5093448;28;20225;-65
2021/06/12 13:12:20;;;;;;;362.17;345.10;;;21.30;99.90;;;;;;5093492;28;20163;-65
2021/06/12 13:15:03;;;;;;;375.80;357.83;;;21.00;99.90;;;;;;5093480;28;20163;-65
2021/06/12 13:17:30;;;;;;;374.75;356.85;;;20.90;99.90;;;;;;5093197;28;20246;-65
2021/06/12 13:19:59;;;;;;;390.48;371.73;;;21.00;99.90;;;;;;5093360;28;20190;-65
2021/06/12 13:22:41;;;;;;;392.75;373.92;;;21.30;99.90;;;;;;5093088;28;20222;-65
2021/06/12 13:25:11;;;;;;;358.17;341.10;;;21.50;99.90;;;;;;5093366;28;20216;-65
2021/06/12 13:27:43;;;;;;;339.17;323.38;;;21.70;99.90;;;;;;5093289;28;20171;-65
2021/06/12 13:30:22;;;;;;;289.85;276.67;;;21.80;99.90;;;;;;5093376;28;20208;-65
2021/06/12 13:32:47;;;;;;;351.42;334.88;;;21.70;99.90;;;;;;5093229;28;20223;-65
2021/06/12 13:35:27;;;;;;;280.48;267.70;;;21.70;99.90;;;;;;5093250;28;20563;-65
2021/06/12 13:38:12;;;;;;;257.60;245.95;;;21.90;99.90;;;;;;5093231;28;20178;-65
2021/06/12 13:40:58;;;;;;;265.58;253.15;;;21.70;99.90;;;;;;5093063;28;20173;-64
2021/06/12 13:43:39;;;;;;;306.30;292.15;;;21.40;99.90;;;;;;5092670;28;20218;-65
2021/06/12 13:46:17;;;;;;;342.38;326.30;;;21.00;99.90;;;;;;5092032;28;20163;-65
2021/06/12 13:48:45;;;;;;;326.23;310.75;;;21.10;99.90;;;;;;5092906;28;20167;-65
2021/06/12 13:51:11;;;;;;;301.65;287.85;;;21.50;99.90;;;;;;5092952;28;20172;-65
2021/06/12 13:53:41;;;;;;;298.35;284.60;;;22.00;99.90;;;;;;5092691;28;20178;-65
2021/06/12 13:56:15;;;;;;;261.88;250.10;;;22.10;99.90;;;;;;5092582;28;20628;-65
2021/06/12 13:58:42;;;;;;;257.73;246.02;;;22.20;99.90;;;;;;5093006;28;20644;-65
2021/06/12 14:01:09;;;;;;;252.68;241.27;;;22.10;99.90;;;;;;5092319;28;20163;-66
2021/06/12 14:03:35;;;;;;;221.15;211.18;;;22.30;99.90;;;;;;5092267;28;20210;-65
2021/06/12 14:06:01;;;;;;;234.32;223.60;;;22.50;99.90;;;;;;5092965;28;20278;-66
2021/06/12 14:08:27;;;;;;;222.55;212.45;;;22.40;99.90;;;;;;5093228;28;20239;-66
2021/06/12 14:10:53;;;;;;;231.88;221.43;;;22.40;99.90;;;;;;5096773;28;20249;-66
2021/06/12 14:13:19;;;;;;;272.85;260.52;;;22.20;99.90;;;;;;5096711;28;20175;-66
2021/06/12 14:15:45;;;;;;;250.52;239.05;;;22.00;99.90;;;;;;5096560;28;20171;-66
2021/06/12 14:18:11;;;;;;;246.50;235.40;;;21.90;99.90;;;;;;5096666;28;20168;-67
2021/06/12 14:20:37;;;;;;;234.18;223.13;;;22.30;99.90;;;;;;5096631;28;20687;-66
2021/06/12 14:23:03;;;;;;;245.65;234.48;;;22.50;99.90;;;;;;5096443;28;20385;-66
2021/06/12 14:25:30;;;;;;;214.98;205.32;;;22.50;99.90;;;;;;5096487;28;20167;-67
2021/06/12 14:27:57;;;;;;;226.40;216.13;;;22.30;99.90;;;;;;5096418;28;20612;-66
2021/06/12 14:30:22;;;;;;;224.98;214.82;;;22.50;99.90;;;;;;5096438;28;20600;-66
2021/06/12 14:32:48;;;;;;;205.77;196.45;;;22.80;99.90;;;;;;5096411;28;20297;-66
2021/06/12 14:35:14;;;;;;;194.57;185.77;;;23.30;99.90;;;;;;5096290;28;20257;-66
2021/06/12 14:37:40;;;;;;;195.25;186.18;;;23.70;99.90;;;;;;5096240;28;20167;-66
2021/06/12 14:40:06;;;;;;;191.60;182.93;;;23.80;99.90;;;;;;5096305;28;20591;-66
2021/06/12 14:42:33;;;;;;;204.18;194.98;;;23.50;99.90;;;;;;5096119;28;20282;-66
2021/06/12 14:44:59;;;;;;;205.05;195.73;;;22.80;99.90;;;;;;5094917;28;20167;-66
2021/06/12 14:47:24;;;;;;;211.02;201.55;;;22.40;99.90;;;;;;5096041;28;20212;-66
2021/06/12 14:49:50;;;;;;;225.27;215.07;;;22.50;99.90;;;;;;5096105;28;20554;-66
2021/06/12 14:52:16;;;;;;;198.73;189.73;;;22.70;99.90;;;;;;5096056;28;20251;-66
2021/06/12 14:54:42;;;;;;;189.93;181.18;;;22.80;99.90;;;;;;5095979;28;20195;-66
2021/06/12 14:57:08;;;;;;;198.07;189.15;;;22.90;99.90;;;;;;5096014;28;20201;-66
2021/06/12 14:59:34;;;;;;;180.40;172.20;;;23.20;99.90;;;;;;5095993;28;20207;-66
2021/06/12 15:01:59;;;;;;;205.73;196.48;;;23.20;99.90;;;;;;5095748;28;20291;-66
2021/06/12 15:04:25;;;;;;;190.77;182.13;;;23.00;99.90;;;;;;5095793;28;20167;-66
2021/06/12 15:06:52;;;;;;;195.75;186.95;;;23.20;99.90;;;;;;5095620;28;20187;-66
2021/06/12 15:09:17;;;;;;;183.85;175.30;;;23.50;99.90;;;;;;5095676;28;20167;-66
2021/06/12 15:11:43;;;;;;;159.95;152.73;;;23.70;99.90;;;;;;5095695;28;20167;-66
2021/06/12 15:14:10;;;;;;;167.13;159.52;;;24.00;99.90;;;;;;5095658;28;20524;-66
2021/06/12 15:16:36;;;;;;;169.65;161.95;;;24.10;99.90;;;;;;5095528;28;20163;-65
2021/06/12 15:19:02;;;;;;;176.98;168.93;;;24.10;99.90;;;;;;5095724;28;20508;-65
2021/06/12 15:21:28;;;;;;;194.82;186.00;;;24.00;99.90;;;;;;5095194;28;20163;-66
2021/06/12 15:23:53;;;;;;;166.57;158.27;;;23.50;99.90;;;;;;5095492;28;20168;-64
2021/06/12 15:26:19;;;;;;;171.05;161.75;;;23.30;99.90;;;;;;5095347;28;20196;-63
2021/06/12 15:28:44;;;;;;;182.40;173.95;;;23.30;99.90;;;;;;5095379;28;20627;-65
2021/06/12 15:31:10;;;;;;;208.52;199.13;;;23.50;99.90;;;;;;5095224;28;20167;-63
2021/06/12 15:33:35;;;;;;;195.73;186.82;;;23.40;99.90;;;;;;5095193;28;20164;-63
2021/06/12 15:36:02;;;;;;;187.90;179.45;;;22.90;99.90;;;;;;5095062;28;20643;-63
2021/06/12 15:38:28;;;;;;;181.18;173.00;;;22.70;99.90;;;;;;5095030;28;20175;-63
2021/06/12 16:36:54;;;;;;;235.50;225.00;;;24.10;99.90;;;;;;4954272;29;20345;-63
2021/06/12 16:39:19;;;;;;;232.93;222.32;;;24.00;99.90;;;;;;4955830;29;20168;-64
2021/06/12 16:41:45;;;;;;;224.80;214.73;;;24.00;99.90;;;;;;4955752;29;20172;-64
2021/06/12 16:44:11;;;;;;;234.77;222.18;;;24.20;99.90;;;;;;4955704;29;20164;-67
2021/06/12 16:46:36;;;;;;;247.32;236.40;;;24.60;99.90;;;;;;4955802;29;20216;-65
2021/06/12 16:49:02;;;;;;;243.80;232.98;;;24.90;99.90;;;;;;4955686;29;20168;-63
2021/06/12 16:51:28;;;;;;;289.42;276.52;;;25.00;99.90;;;;;;4955524;29;20641;-63
2021/06/12 16:53:56;;;;;;;265.92;253.98;;;24.40;99.90;;;;;;4955541;29;20168;-63
2021/06/12 16:59:19;;;;;;;264.75;252.88;;;24.10;99.90;;;;;;4943676;29;20270;-63
2021/06/12 17:01:44;;;;;;;261.08;249.38;;;23.50;99.90;;;;;;4955361;29;20259;-63
2021/06/12 17:04:10;;;;;;;220.88;211.02;;;23.20;99.90;;;;;;4954191;29;20310;-63
2021/06/12 17:06:36;;;;;;;198.55;189.60;;;23.10;99.90;;;;;;4955326;29;20231;-63
2021/06/12 17:09:02;;;;;;;217.18;207.25;;;22.50;99.90;;;;;;4955278;29;20172;-63
2021/06/12 17:11:29;;;;;;;232.18;221.45;;;21.90;99.90;;;;;;4955313;29;20234;-63
2021/06/12 17:13:54;;;;;;;245.45;234.30;;;21.30;99.90;;;;;;4955413;29;20172;-63
2021/06/12 17:16:20;;;;;;;242.35;231.32;;;21.00;99.90;;;;;;4955222;29;20580;-63
2021/06/12 17:18:46;;;;;;;274.75;262.23;;;20.80;99.90;;;;;;4955292;29;20172;-63
2021/06/12 17:21:15;;;;;;;286.45;273.35;;;21.00;99.90;;;;;;4953997;29;20176;-64
2021/06/12 17:23:42;;;;;;;267.88;255.73;;;21.30;99.90;;;;;;4955087;29;20596;-64
2021/06/12 17:26:07;;;;;;;248.95;237.50;;;21.80;99.90;;;;;;4955133;29;20175;-64
2021/06/12 17:28:33;;;;;;;240.68;229.80;;;22.10;99.90;;;;;;4955198;29;20171;-63
2021/06/12 17:31:00;;;;;;;255.02;243.45;;;21.80;99.90;;;;;;4955295;29;20167;-64
2021/06/12 17:33:26;;;;;;;260.38;248.32;;;21.40;99.90;;;;;;4955042;29;20190;-64
2021/06/12 17:35:51;;;;;;;302.10;287.92;;;21.00;99.90;;;;;;4954891;29;20581;-64
2021/06/12 17:38:18;;;;;;;332.25;316.75;;;20.70;99.90;;;;;;4954997;29;20190;-64
2021/06/12 17:40:44;;;;;;;282.45;269.58;;;21.20;99.90;;;;;;4955076;29;20195;-64
2021/06/12 17:43:10;;;;;;;263.10;251.07;;;21.60;99.90;;;;;;4954987;28;20263;-64
2021/06/12 17:45:36;;;;;;;257.58;245.90;;;21.80;99.90;;;;;;4958923;29;20171;-64
2021/06/12 17:48:02;;;;;;;271.10;258.75;;;21.50;99.90;;;;;;4958824;29;20199;-64
2021/06/12 17:50:28;;;;;;;264.33;252.23;;;21.40;99.90;;;;;;4958740;29;20195;-64
2021/06/12 17:52:54;;;;;;;271.65;259.17;;;21.40;99.90;;;;;;4958695;29;20255;-64
2021/06/12 17:55:19;;;;;;;289.95;276.67;;;21.40;99.90;;;;;;4958753;29;20259;-64
2021/06/12 17:57:45;;;;;;;291.77;278.13;;;21.80;99.90;;;;;;4958744;29;20183;-64
2021/06/12 18:00:13;;;;;;;237.65;226.90;;;22.10;99.90;;;;;;4957358;29;20246;-64
2021/06/12 18:02:40;;;;;;;285.60;272.50;;;22.20;99.90;;;;;;4958584;29;20243;-64
2021/06/12 18:05:06;;;;;;;264.73;252.77;;;22.00;99.90;;;;;;4958571;29;20526;-64
2021/06/12 18:07:32;;;;;;;241.23;230.40;;;22.20;99.90;;;;;;4958474;29;20176;-64
2021/06/12 18:09:58;;;;;;;209.90;200.38;;;22.30;99.90;;;;;;4958410;29;20171;-64
2021/06/12 18:12:24;;;;;;;223.68;211.88;;;22.20;99.90;;;;;;4958312;29;20183;-64
2021/06/12 18:14:49;;;;;;;214.70;204.35;;;22.10;99.90;;;;;;4958313;29;20534;-64
2021/06/12 18:17:15;;;;;;;212.82;203.25;;;21.90;99.90;;;;;;4958255;29;20245;-64
2021/06/12 18:19:40;;;;;;;239.30;228.55;;;21.60;99.90;;;;;;4958283;29;20195;-64
2021/06/12 18:22:06;;;;;;;261.83;249.98;;;21.40;99.90;;;;;;4958253;29;20731;-64
2021/06/12 18:24:32;;;;;;;234.88;224.27;;;21.60;99.90;;;;;;4958248;29;20175;-64
2021/06/12 18:26:58;;;;;;;265.10;253.07;;;21.40;99.90;;;;;;4958266;29;20539;-64
2021/06/12 18:29:24;;;;;;;296.88;283.15;;;20.90;99.90;;;;;;4958213;29;20647;-64
2021/06/12 18:31:50;;;;;;;309.00;294.75;;;20.50;99.90;;;;;;4958208;29;20184;-64
2021/06/12 18:34:16;;;;;;;321.13;306.25;;;20.10;99.90;;;;;;4957851;29;20644;-64
2021/06/12 18:36:41;;;;;;;326.33;311.08;;;19.90;99.90;;;;;;4958012;29;20176;-64
2021/06/12 18:39:11;;;;;;;319.35;304.45;;;19.70;99.90;;;;;;4958062;29;20274;-64
2021/06/12 18:41:37;;;;;;;346.48;330.05;;;19.50;99.90;;;;;;4957966;29;20176;-64
2021/06/12 18:44:03;;;;;;;342.48;326.20;;;19.30;99.90;;;;;;4957973;29;20172;-63
2021/06/12 18:46:29;;;;;;;387.10;368.13;;;19.00;99.90;;;;;;4957909;29;20176;-63
2021/06/12 18:48:55;;;;;;;394.20;374.83;;;18.90;99.90;;;;;;4956579;29;20176;-65
2021/06/12 18:51:21;;;;;;;420.15;388.42;;;19.00;99.90;;;;;;4957768;29;20172;-64
2021/06/12 18:53:46;;;;;;;378.08;359.80;;;19.20;99.90;;;;;;4957728;29;20172;-65
2021/06/12 18:56:12;;;;;;;399.90;379.55;;;19.10;99.90;;;;;;4957258;28;20172;-64
2021/06/12 18:58:37;;;;;;;403.15;383.20;;;19.00;99.90;;;;;;4957637;29;20188;-64
2021/06/12 19:01:07;;;;;;;404.23;383.95;;;18.90;99.90;;;;;;4957572;29;20179;-64
2021/06/12 19:03:33;;;;;;;361.92;344.50;;;18.70;99.90;;;;;;4957427;29;20192;-63
2021/06/12 19:05:59;;;;;;;352.27;335.38;;;18.70;99.90;;;;;;4957451;29;20173;-64
2021/06/12 19:08:30;;;;;;;371.92;353.83;;;18.60;99.90;;;;;;4957488;29;20196;-64
2021/06/12 19:10:56;;;;;;;364.10;346.38;;;18.80;99.90;;;;;;4957467;29;20175;-64
2021/06/12 19:13:22;;;;;;;397.67;378.00;;;18.90;99.90;;;;;;4957409;29;20709;-64
2021/06/12 19:15:48;;;;;;;410.10;389.10;;;19.10;99.90;;;;;;4957305;29;20221;-64
2021/06/12 19:18:14;;;;;;;390.60;371.45;;;19.10;99.90;;;;;;4957298;29;20171;-64
2021/06/12 19:20:39;;;;;;;392.25;373.17;;;18.90;99.90;;;;;;4957242;29;20172;-64
2021/06/12 19:23:05;;;;;;;360.13;342.35;;;18.80;99.90;;;;;;4957117;29;20204;-64
2021/06/12 19:25:31;;;;;;;354.10;337.27;;;18.70;99.90;;;;;;4957137;29;20172;-64
